Bruce, Wisconsin
Current Conditions -  °F | °C
As of 8:15 PM on Monday 22 Dec 2014 (Local Time) from KRCX Reporting Station
Overcast Overcast  
Wind Chill: 29°   Ceiling: 1300
Heat Index: 35°   Visibility: 7mi
Dew Point: 32°   Wind: 8mph
Humidity: 88%   Direction: 80°E
Pressure: 29.71"   Gusts: 16mph
Location:  45.46°N, 91.27°W
Report Text: KRCX 230215Z AUTO 08007G14KT 7SM OVC013 02/00 A2971 RMK AO2 T00171001
Loading
Personal Weather Stations






























Interactive Weather Map New forecast layout! Learn more

10-Day Weather Forecast

Advertisements
Track Severe Weather on mobile